sensor_id;sensor_type;location;lat;lon;timestamp;P1;durP1;ratioP1;P2;durP2;ratioP2
15831;SDS011;8016;49.928;9.372;2022-07-12T00:02:01;2.50;;;2.00;;
15831;SDS011;8016;49.928;9.372;2022-07-12T00:04:27;1.70;;;1.60;;
15831;SDS011;8016;49.928;9.372;2022-07-12T00:06:54;2.10;;;1.90;;
15831;SDS011;8016;49.928;9.372;2022-07-12T00:09:20;2.27;;;1.90;;
15831;SDS011;8016;49.928;9.372;2022-07-12T00:11:46;1.80;;;1.70;;
15831;SDS011;8016;49.928;9.372;2022-07-12T00:14:12;1.70;;;1.50;;
15831;SDS011;8016;49.928;9.372;2022-07-12T00:16:38;1.70;;;1.60;;
15831;SDS011;8016;49.928;9.372;2022-07-12T00:19:04;1.77;;;1.67;;
15831;SDS011;8016;49.928;9.372;2022-07-12T00:21:30;4.43;;;1.70;;
15831;SDS011;8016;49.928;9.372;2022-07-12T00:23:56;1.80;;;1.70;;
15831;SDS011;8016;49.928;9.372;2022-07-12T00:26:22;1.87;;;1.77;;
15831;SDS011;8016;49.928;9.372;2022-07-12T00:28:48;1.80;;;1.70;;
15831;SDS011;8016;49.928;9.372;2022-07-12T00:31:14;2.50;;;1.90;;
15831;SDS011;8016;49.928;9.372;2022-07-12T00:33:40;2.10;;;1.80;;
15831;SDS011;8016;49.928;9.372;2022-07-12T00:36:06;1.87;;;1.77;;
15831;SDS011;8016;49.928;9.372;2022-07-12T00:38:32;4.53;;;1.80;;
15831;SDS011;8016;49.928;9.372;2022-07-12T00:40:58;2.00;;;1.90;;
15831;SDS011;8016;49.928;9.372;2022-07-12T00:43:24;2.67;;;2.00;;
15831;SDS011;8016;49.928;9.372;2022-07-12T00:45:50;2.93;;;1.70;;
15831;SDS011;8016;49.928;9.372;2022-07-12T00:48:17;1.53;;;1.43;;
15831;SDS011;8016;49.928;9.372;2022-07-12T00:50:44;1.77;;;1.67;;
15831;SDS011;8016;49.928;9.372;2022-07-12T00:53:10;1.90;;;1.70;;
15831;SDS011;8016;49.928;9.372;2022-07-12T00:55:36;1.90;;;1.80;;
15831;SDS011;8016;49.928;9.372;2022-07-12T00:58:02;2.03;;;1.70;;
15831;SDS011;8016;49.928;9.372;2022-07-12T01:00:28;2.40;;;1.67;;
15831;SDS011;8016;49.928;9.372;2022-07-12T01:02:55;2.73;;;1.93;;
15831;SDS011;8016;49.928;9.372;2022-07-12T01:05:21;2.17;;;1.60;;
15831;SDS011;8016;49.928;9.372;2022-07-12T01:07:47;3.60;;;2.13;;
15831;SDS011;8016;49.928;9.372;2022-07-12T01:10:13;1.93;;;1.83;;
15831;SDS011;8016;49.928;9.372;2022-07-12T01:12:39;1.90;;;1.60;;
15831;SDS011;8016;49.928;9.372;2022-07-12T01:15:06;2.70;;;1.50;;
15831;SDS011;8016;49.928;9.372;2022-07-12T01:17:32;1.60;;;1.50;;
15831;SDS011;8016;49.928;9.372;2022-07-12T01:19:59;2.43;;;1.60;;
15831;SDS011;8016;49.928;9.372;2022-07-12T01:22:26;1.60;;;1.50;;
15831;SDS011;8016;49.928;9.372;2022-07-12T01:24:52;7.90;;;1.57;;
15831;SDS011;8016;49.928;9.372;2022-07-12T01:27:19;1.40;;;1.30;;
15831;SDS011;8016;49.928;9.372;2022-07-12T01:29:44;1.70;;;1.60;;
15831;SDS011;8016;49.928;9.372;2022-07-12T01:32:10;1.53;;;1.43;;
15831;SDS011;8016;49.928;9.372;2022-07-12T01:37:19;1.90;;;1.70;;
15831;SDS011;8016;49.928;9.372;2022-07-12T01:39:46;1.60;;;1.50;;
15831;SDS011;8016;49.928;9.372;2022-07-12T01:42:12;2.20;;;1.70;;
15831;SDS011;8016;49.928;9.372;2022-07-12T01:44:39;2.17;;;1.97;;
15831;SDS011;8016;49.928;9.372;2022-07-12T01:47:05;1.93;;;1.80;;
15831;SDS011;8016;49.928;9.372;2022-07-12T01:49:31;1.53;;;1.43;;
15831;SDS011;8016;49.928;9.372;2022-07-12T01:51:57;2.17;;;1.97;;
15831;SDS011;8016;49.928;9.372;2022-07-12T01:54:24;2.20;;;1.60;;
15831;SDS011;8016;49.928;9.372;2022-07-12T01:56:50;2.00;;;1.63;;
15831;SDS011;8016;49.928;9.372;2022-07-12T01:59:17;1.80;;;1.70;;
15831;SDS011;8016;49.928;9.372;2022-07-12T02:01:43;1.70;;;1.60;;
15831;SDS011;8016;49.928;9.372;2022-07-12T02:04:09;1.80;;;1.70;;
15831;SDS011;8016;49.928;9.372;2022-07-12T02:06:35;1.53;;;1.43;;
15831;SDS011;8016;49.928;9.372;2022-07-12T02:09:01;1.97;;;1.80;;
15831;SDS011;8016;49.928;9.372;2022-07-12T02:11:27;1.83;;;1.73;;
15831;SDS011;8016;49.928;9.372;2022-07-12T02:13:53;2.00;;;1.90;;
15831;SDS011;8016;49.928;9.372;2022-07-12T02:16:19;2.13;;;2.03;;
15831;SDS011;8016;49.928;9.372;2022-07-12T02:18:45;2.37;;;1.50;;
15831;SDS011;8016;49.928;9.372;2022-07-12T02:21:11;2.27;;;1.63;;
15831;SDS011;8016;49.928;9.372;2022-07-12T02:23:38;1.93;;;1.83;;
15831;SDS011;8016;49.928;9.372;2022-07-12T02:26:04;2.23;;;1.60;;
15831;SDS011;8016;49.928;9.372;2022-07-12T02:28:30;1.97;;;1.80;;
15831;SDS011;8016;49.928;9.372;2022-07-12T02:30:56;2.80;;;1.93;;
15831;SDS011;8016;49.928;9.372;2022-07-12T02:33:22;2.00;;;1.80;;
15831;SDS011;8016;49.928;9.372;2022-07-12T02:35:48;2.30;;;1.70;;
15831;SDS011;8016;49.928;9.372;2022-07-12T02:38:15;1.63;;;1.47;;
15831;SDS011;8016;49.928;9.372;2022-07-12T02:40:41;2.80;;;1.43;;
15831;SDS011;8016;49.928;9.372;2022-07-12T02:43:22;2.90;;;1.77;;
15831;SDS011;8016;49.928;9.372;2022-07-12T02:45:52;2.03;;;1.90;;
15831;SDS011;8016;49.928;9.372;2022-07-12T02:48:18;1.87;;;1.77;;
15831;SDS011;8016;49.928;9.372;2022-07-12T02:50:44;1.63;;;1.53;;
15831;SDS011;8016;49.928;9.372;2022-07-12T02:53:10;1.73;;;1.63;;
15831;SDS011;8016;49.928;9.372;2022-07-12T02:55:37;2.22;;;2.10;;
15831;SDS011;8016;49.928;9.372;2022-07-12T02:58:03;2.10;;;1.90;;
15831;SDS011;8016;49.928;9.372;2022-07-12T03:00:33;1.50;;;1.40;;
15831;SDS011;8016;49.928;9.372;2022-07-12T03:02:59;3.37;;;1.90;;
15831;SDS011;8016;49.928;9.372;2022-07-12T03:05:25;1.67;;;1.57;;
15831;SDS011;8016;49.928;9.372;2022-07-12T03:07:51;1.80;;;1.70;;
15831;SDS011;8016;49.928;9.372;2022-07-12T03:10:17;2.47;;;1.53;;
15831;SDS011;8016;49.928;9.372;2022-07-12T03:12:43;2.97;;;2.10;;
15831;SDS011;8016;49.928;9.372;2022-07-12T03:15:09;1.93;;;1.73;;
15831;SDS011;8016;49.928;9.372;2022-07-12T03:17:35;1.90;;;1.80;;
15831;SDS011;8016;49.928;9.372;2022-07-12T03:20:02;4.37;;;1.77;;
15831;SDS011;8016;49.928;9.372;2022-07-12T03:22:29;2.33;;;2.10;;
15831;SDS011;8016;49.928;9.372;2022-07-12T03:24:55;2.17;;;1.97;;
15831;SDS011;8016;49.928;9.372;2022-07-12T03:27:21;3.43;;;1.70;;
15831;SDS011;8016;49.928;9.372;2022-07-12T03:29:47;1.83;;;1.73;;
15831;SDS011;8016;49.928;9.372;2022-07-12T03:32:13;1.40;;;1.30;;
15831;SDS011;8016;49.928;9.372;2022-07-12T03:34:39;1.77;;;1.67;;
15831;SDS011;8016;49.928;9.372;2022-07-12T03:37:05;1.80;;;1.70;;
15831;SDS011;8016;49.928;9.372;2022-07-12T03:39:31;2.20;;;1.70;;
15831;SDS011;8016;49.928;9.372;2022-07-12T03:41:57;2.17;;;1.73;;
15831;SDS011;8016;49.928;9.372;2022-07-12T03:44:23;6.67;;;2.10;;
15831;SDS011;8016;49.928;9.372;2022-07-12T03:46:49;2.20;;;1.70;;
15831;SDS011;8016;49.928;9.372;2022-07-12T03:49:15;2.10;;;1.90;;
15831;SDS011;8016;49.928;9.372;2022-07-12T03:51:41;2.47;;;2.27;;
15831;SDS011;8016;49.928;9.372;2022-07-12T03:54:07;2.00;;;1.90;;
15831;SDS011;8016;49.928;9.372;2022-07-12T03:56:36;3.50;;;2.10;;
15831;SDS011;8016;49.928;9.372;2022-07-12T03:59:21;3.67;;;2.07;;
15831;SDS011;8016;49.928;9.372;2022-07-12T04:01:47;1.87;;;1.77;;
15831;SDS011;8016;49.928;9.372;2022-07-12T04:04:13;2.03;;;1.90;;
15831;SDS011;8016;49.928;9.372;2022-07-12T04:06:39;2.30;;;2.10;;
15831;SDS011;8016;49.928;9.372;2022-07-12T04:09:05;1.90;;;1.80;;
15831;SDS011;8016;49.928;9.372;2022-07-12T04:11:32;2.03;;;1.90;;
15831;SDS011;8016;49.928;9.372;2022-07-12T04:13:58;1.97;;;1.87;;
15831;SDS011;8016;49.928;9.372;2022-07-12T04:16:24;2.13;;;1.97;;
15831;SDS011;8016;49.928;9.372;2022-07-12T04:18:50;1.87;;;1.70;;
15831;SDS011;8016;49.928;9.372;2022-07-12T04:21:16;2.17;;;1.80;;
15831;SDS011;8016;49.928;9.372;2022-07-12T04:23:42;2.87;;;1.63;;
15831;SDS011;8016;49.928;9.372;2022-07-12T04:26:08;1.90;;;1.80;;
15831;SDS011;8016;49.928;9.372;2022-07-12T04:28:37;2.83;;;2.63;;
15831;SDS011;8016;49.928;9.372;2022-07-12T04:31:03;2.10;;;1.90;;
15831;SDS011;8016;49.928;9.372;2022-07-12T04:33:29;2.23;;;1.83;;
15831;SDS011;8016;49.928;9.372;2022-07-12T04:35:55;2.13;;;1.50;;
15831;SDS011;8016;49.928;9.372;2022-07-12T04:38:21;2.30;;;1.80;;
15831;SDS011;8016;49.928;9.372;2022-07-12T04:40:47;1.57;;;1.47;;
15831;SDS011;8016;49.928;9.372;2022-07-12T04:43:13;1.53;;;1.43;;
15831;SDS011;8016;49.928;9.372;2022-07-12T04:45:39;1.57;;;1.47;;
15831;SDS011;8016;49.928;9.372;2022-07-12T04:48:08;1.43;;;1.33;;
15831;SDS011;8016;49.928;9.372;2022-07-12T04:50:34;1.53;;;1.43;;
15831;SDS011;8016;49.928;9.372;2022-07-12T04:53:01;1.27;;;1.20;;
15831;SDS011;8016;49.928;9.372;2022-07-12T04:55:27;1.43;;;1.33;;
15831;SDS011;8016;49.928;9.372;2022-07-12T04:57:53;1.50;;;1.40;;
15831;SDS011;8016;49.928;9.372;2022-07-12T05:00:18;1.50;;;1.40;;
15831;SDS011;8016;49.928;9.372;2022-07-12T05:02:45;1.20;;;1.00;;
15831;SDS011;8016;49.928;9.372;2022-07-12T05:05:11;3.40;;;1.33;;
15831;SDS011;8016;49.928;9.372;2022-07-12T05:07:37;1.87;;;1.03;;
15831;SDS011;8016;49.928;9.372;2022-07-12T05:10:03;1.67;;;0.83;;
15831;SDS011;8016;49.928;9.372;2022-07-12T05:12:29;8.30;;;1.30;;
15831;SDS011;8016;49.928;9.372;2022-07-12T05:14:55;1.77;;;1.10;;
15831;SDS011;8016;49.928;9.372;2022-07-12T05:17:21;1.27;;;1.17;;
15831;SDS011;8016;49.928;9.372;2022-07-12T05:19:47;1.63;;;1.20;;
15831;SDS011;8016;49.928;9.372;2022-07-12T05:22:13;1.40;;;1.30;;
15831;SDS011;8016;49.928;9.372;2022-07-12T05:24:39;1.07;;;1.00;;
15831;SDS011;8016;49.928;9.372;2022-07-12T05:27:05;0.90;;;0.90;;
15831;SDS011;8016;49.928;9.372;2022-07-12T05:29:31;0.90;;;0.90;;
15831;SDS011;8016;49.928;9.372;2022-07-12T05:31:57;0.80;;;0.80;;
15831;SDS011;8016;49.928;9.372;2022-07-12T05:34:23;1.80;;;0.73;;
15831;SDS011;8016;49.928;9.372;2022-07-12T05:36:49;2.50;;;1.20;;
15831;SDS011;8016;49.928;9.372;2022-07-12T05:39:15;1.17;;;0.90;;
15831;SDS011;8016;49.928;9.372;2022-07-12T05:41:41;0.90;;;0.80;;
15831;SDS011;8016;49.928;9.372;2022-07-12T05:44:07;1.83;;;1.10;;
15831;SDS011;8016;49.928;9.372;2022-07-12T05:46:33;2.00;;;1.07;;
15831;SDS011;8016;49.928;9.372;2022-07-12T05:48:59;0.80;;;0.80;;
15831;SDS011;8016;49.928;9.372;2022-07-12T05:51:26;2.47;;;0.90;;
15831;SDS011;8016;49.928;9.372;2022-07-12T05:54:10;1.20;;;1.00;;
15831;SDS011;8016;49.928;9.372;2022-07-12T05:56:36;1.00;;;1.00;;
15831;SDS011;8016;49.928;9.372;2022-07-12T05:59:02;1.13;;;1.00;;
15831;SDS011;8016;49.928;9.372;2022-07-12T06:01:28;0.90;;;0.90;;
15831;SDS011;8016;49.928;9.372;2022-07-12T06:03:54;1.20;;;1.10;;
15831;SDS011;8016;49.928;9.372;2022-07-12T06:06:20;0.97;;;0.70;;
15831;SDS011;8016;49.928;9.372;2022-07-12T06:08:46;1.53;;;0.90;;
15831;SDS011;8016;49.928;9.372;2022-07-12T06:11:12;0.80;;;0.80;;
15831;SDS011;8016;49.928;9.372;2022-07-12T06:13:38;1.77;;;0.97;;
15831;SDS011;8016;49.928;9.372;2022-07-12T06:16:04;0.87;;;0.87;;
15831;SDS011;8016;49.928;9.372;2022-07-12T06:18:31;1.03;;;0.90;;
15831;SDS011;8016;49.928;9.372;2022-07-12T06:20:57;1.73;;;1.63;;
15831;SDS011;8016;49.928;9.372;2022-07-12T06:23:23;2.43;;;1.23;;
15831;SDS011;8016;49.928;9.372;2022-07-12T06:25:49;1.00;;;0.90;;
15831;SDS011;8016;49.928;9.372;2022-07-12T06:28:15;2.20;;;1.30;;
15831;SDS011;8016;49.928;9.372;2022-07-12T06:30:41;1.97;;;1.20;;
15831;SDS011;8016;49.928;9.372;2022-07-12T06:33:07;1.43;;;1.23;;
15831;SDS011;8016;49.928;9.372;2022-07-12T06:35:33;1.30;;;1.20;;
15831;SDS011;8016;49.928;9.372;2022-07-12T06:38:00;2.37;;;1.30;;
15831;SDS011;8016;49.928;9.372;2022-07-12T06:40:26;1.37;;;1.27;;
15831;SDS011;8016;49.928;9.372;2022-07-12T06:42:52;1.20;;;1.10;;
15831;SDS011;8016;49.928;9.372;2022-07-12T06:45:18;1.20;;;1.10;;
15831;SDS011;8016;49.928;9.372;2022-07-12T06:47:44;1.30;;;1.20;;
15831;SDS011;8016;49.928;9.372;2022-07-12T06:50:10;2.03;;;1.30;;
15831;SDS011;8016;49.928;9.372;2022-07-12T06:52:36;1.50;;;1.40;;
15831;SDS011;8016;49.928;9.372;2022-07-12T06:55:02;1.47;;;1.37;;
15831;SDS011;8016;49.928;9.372;2022-07-12T06:57:28;2.37;;;1.60;;
15831;SDS011;8016;49.928;9.372;2022-07-12T06:59:58;2.37;;;1.40;;
15831;SDS011;8016;49.928;9.372;2022-07-12T07:02:24;1.50;;;1.40;;
15831;SDS011;8016;49.928;9.372;2022-07-12T07:04:50;1.57;;;1.20;;
15831;SDS011;8016;49.928;9.372;2022-07-12T07:07:16;1.30;;;1.20;;
15831;SDS011;8016;49.928;9.372;2022-07-12T07:09:43;1.50;;;1.40;;
15831;SDS011;8016;49.928;9.372;2022-07-12T07:12:09;1.50;;;1.40;;
15831;SDS011;8016;49.928;9.372;2022-07-12T07:14:35;1.93;;;1.30;;
15831;SDS011;8016;49.928;9.372;2022-07-12T07:17:01;2.27;;;1.40;;
15831;SDS011;8016;49.928;9.372;2022-07-12T07:19:27;1.43;;;1.33;;
15831;SDS011;8016;49.928;9.372;2022-07-12T07:21:53;1.47;;;1.10;;
15831;SDS011;8016;49.928;9.372;2022-07-12T07:24:20;1.20;;;1.10;;
15831;SDS011;8016;49.928;9.372;2022-07-12T07:26:46;1.40;;;1.30;;
15831;SDS011;8016;49.928;9.372;2022-07-12T07:29:12;1.50;;;1.40;;
15831;SDS011;8016;49.928;9.372;2022-07-12T07:31:57;1.20;;;1.10;;
15831;SDS011;8016;49.928;9.372;2022-07-12T07:34:23;1.97;;;1.10;;
15831;SDS011;8016;49.928;9.372;2022-07-12T07:36:50;1.10;;;1.00;;
15831;SDS011;8016;49.928;9.372;2022-07-12T07:39:16;1.00;;;0.90;;
15831;SDS011;8016;49.928;9.372;2022-07-12T07:41:42;1.03;;;1.00;;
15831;SDS011;8016;49.928;9.372;2022-07-12T07:44:08;2.73;;;1.00;;
15831;SDS011;8016;49.928;9.372;2022-07-12T07:46:34;0.83;;;0.83;;
15831;SDS011;8016;49.928;9.372;2022-07-12T07:49:00;1.37;;;1.07;;
15831;SDS011;8016;49.928;9.372;2022-07-12T07:51:26;1.10;;;1.00;;
15831;SDS011;8016;49.928;9.372;2022-07-12T07:53:52;1.40;;;1.30;;
15831;SDS011;8016;49.928;9.372;2022-07-12T07:56:18;1.20;;;1.00;;
15831;SDS011;8016;49.928;9.372;2022-07-12T07:58:44;1.07;;;1.00;;
15831;SDS011;8016;49.928;9.372;2022-07-12T08:01:10;1.27;;;1.17;;
15831;SDS011;8016;49.928;9.372;2022-07-12T08:03:36;1.10;;;1.00;;
15831;SDS011;8016;49.928;9.372;2022-07-12T08:06:02;1.40;;;1.30;;
15831;SDS011;8016;49.928;9.372;2022-07-12T08:08:28;2.07;;;1.30;;
15831;SDS011;8016;49.928;9.372;2022-07-12T08:10:55;1.30;;;1.20;;
15831;SDS011;8016;49.928;9.372;2022-07-12T08:13:21;1.70;;;1.37;;
15831;SDS011;8016;49.928;9.372;2022-07-12T08:15:47;1.30;;;1.10;;
15831;SDS011;8016;49.928;9.372;2022-07-12T08:18:13;0.93;;;0.90;;
15831;SDS011;8016;49.928;9.372;2022-07-12T08:20:40;1.17;;;1.00;;
15831;SDS011;8016;49.928;9.372;2022-07-12T08:23:06;1.67;;;1.00;;
15831;SDS011;8016;49.928;9.372;2022-07-12T08:25:32;1.10;;;1.00;;
15831;SDS011;8016;49.928;9.372;2022-07-12T08:27:58;1.43;;;0.90;;
15831;SDS011;8016;49.928;9.372;2022-07-12T08:30:24;1.33;;;1.20;;
15831;SDS011;8016;49.928;9.372;2022-07-12T08:32:50;1.40;;;1.30;;
15831;SDS011;8016;49.928;9.372;2022-07-12T08:35:16;1.00;;;0.90;;
15831;SDS011;8016;49.928;9.372;2022-07-12T08:37:42;1.00;;;1.00;;
15831;SDS011;8016;49.928;9.372;2022-07-12T08:40:08;0.70;;;0.70;;
15831;SDS011;8016;49.928;9.372;2022-07-12T08:42:35;0.83;;;0.83;;
15831;SDS011;8016;49.928;9.372;2022-07-12T08:45:01;2.03;;;0.90;;
15831;SDS011;8016;49.928;9.372;2022-07-12T08:47:27;0.73;;;0.73;;
15831;SDS011;8016;49.928;9.372;2022-07-12T08:50:12;1.23;;;0.90;;
15831;SDS011;8016;49.928;9.372;2022-07-12T08:52:48;1.20;;;1.00;;
15831;SDS011;8016;49.928;9.372;2022-07-12T08:57:44;0.90;;;0.90;;
15831;SDS011;8016;49.928;9.372;2022-07-12T09:00:10;2.93;;;0.90;;
15831;SDS011;8016;49.928;9.372;2022-07-12T09:02:43;1.00;;;1.00;;
15831;SDS011;8016;49.928;9.372;2022-07-12T09:05:10;0.87;;;0.87;;
15831;SDS011;8016;49.928;9.372;2022-07-12T09:07:37;2.87;;;1.07;;
15831;SDS011;8016;49.928;9.372;2022-07-12T09:10:06;0.97;;;0.80;;
15831;SDS011;8016;49.928;9.372;2022-07-12T09:12:33;0.80;;;0.80;;
15831;SDS011;8016;49.928;9.372;2022-07-12T09:15:18;1.27;;;0.70;;
15831;SDS011;8016;49.928;9.372;2022-07-12T09:20:21;1.20;;;1.10;;
15831;SDS011;8016;49.928;9.372;2022-07-12T09:22:56;0.80;;;0.80;;
15831;SDS011;8016;49.928;9.372;2022-07-12T09:25:22;1.17;;;0.93;;
15831;SDS011;8016;49.928;9.372;2022-07-12T09:27:53;1.17;;;1.00;;
15831;SDS011;8016;49.928;9.372;2022-07-12T09:30:20;0.90;;;0.90;;
15831;SDS011;8016;49.928;9.372;2022-07-12T09:32:57;3.00;;;1.00;;
15831;SDS011;8016;49.928;9.372;2022-07-12T09:35:42;0.70;;;0.70;;
15831;SDS011;8016;49.928;9.372;2022-07-12T09:38:27;0.90;;;0.90;;
15831;SDS011;8016;49.928;9.372;2022-07-12T09:40:53;1.13;;;1.00;;
15831;SDS011;8016;49.928;9.372;2022-07-12T09:43:21;1.00;;;1.00;;
15831;SDS011;8016;49.928;9.372;2022-07-12T09:45:47;1.53;;;1.00;;
15831;SDS011;8016;49.928;9.372;2022-07-12T09:48:14;1.07;;;0.80;;
15831;SDS011;8016;49.928;9.372;2022-07-12T09:50:40;1.63;;;0.60;;
15831;SDS011;8016;49.928;9.372;2022-07-12T09:53:07;1.47;;;0.90;;
15831;SDS011;8016;49.928;9.372;2022-07-12T09:55:36;0.90;;;0.90;;
15831;SDS011;8016;49.928;9.372;2022-07-12T09:58:03;0.60;;;0.60;;
15831;SDS011;8016;49.928;9.372;2022-07-12T10:00:30;0.80;;;0.60;;
15831;SDS011;8016;49.928;9.372;2022-07-12T10:02:57;0.87;;;0.87;;
15831;SDS011;8016;49.928;9.372;2022-07-12T10:05:24;1.73;;;0.70;;
15831;SDS011;8016;49.928;9.372;2022-07-12T10:07:50;1.17;;;0.70;;
15831;SDS011;8016;49.928;9.372;2022-07-12T10:10:16;0.77;;;0.70;;
15831;SDS011;8016;49.928;9.372;2022-07-12T10:12:43;0.77;;;0.77;;
15831;SDS011;8016;49.928;9.372;2022-07-12T10:15:14;1.97;;;0.90;;
15831;SDS011;8016;49.928;9.372;2022-07-12T10:17:40;0.70;;;0.70;;
15831;SDS011;8016;49.928;9.372;2022-07-12T10:20:14;0.97;;;0.70;;
15831;SDS011;8016;49.928;9.372;2022-07-12T10:22:41;0.70;;;0.70;;
15831;SDS011;8016;49.928;9.372;2022-07-12T10:25:28;0.90;;;0.90;;
15831;SDS011;8016;49.928;9.372;2022-07-12T10:27:53;1.00;;;0.90;;
15831;SDS011;8016;49.928;9.372;2022-07-12T10:30:20;1.07;;;0.70;;
15831;SDS011;8016;49.928;9.372;2022-07-12T10:32:47;0.70;;;0.70;;
15831;SDS011;8016;49.928;9.372;2022-07-12T10:35:20;0.60;;;0.60;;
15831;SDS011;8016;49.928;9.372;2022-07-12T10:40:34;1.70;;;0.70;;
15831;SDS011;8016;49.928;9.372;2022-07-12T10:45:32;0.80;;;0.80;;
15831;SDS011;8016;49.928;9.372;2022-07-12T10:48:00;0.93;;;0.70;;
15831;SDS011;8016;49.928;9.372;2022-07-12T10:53:32;2.10;;;0.80;;
15831;SDS011;8016;49.928;9.372;2022-07-12T10:58:50;0.70;;;0.70;;
15831;SDS011;8016;49.928;9.372;2022-07-12T11:01:26;1.43;;;0.70;;
15831;SDS011;8016;49.928;9.372;2022-07-12T11:06:25;1.00;;;0.70;;
15831;SDS011;8016;49.928;9.372;2022-07-12T11:08:55;0.87;;;0.60;;
15831;SDS011;8016;49.928;9.372;2022-07-12T11:11:22;2.00;;;0.70;;
15831;SDS011;8016;49.928;9.372;2022-07-12T11:13:48;0.50;;;0.50;;
15831;SDS011;8016;49.928;9.372;2022-07-12T11:16:14;1.70;;;0.70;;
15831;SDS011;8016;49.928;9.372;2022-07-12T11:18:41;1.10;;;0.80;;
15831;SDS011;8016;49.928;9.372;2022-07-12T11:21:08;1.07;;;0.70;;
15831;SDS011;8016;49.928;9.372;2022-07-12T11:23:34;0.87;;;0.77;;
15831;SDS011;8016;49.928;9.372;2022-07-12T11:26:01;0.60;;;0.60;;
15831;SDS011;8016;49.928;9.372;2022-07-12T11:28:27;1.73;;;0.50;;
15831;SDS011;8016;49.928;9.372;2022-07-12T11:30:53;0.70;;;0.70;;
15831;SDS011;8016;49.928;9.372;2022-07-12T11:33:26;4.33;;;0.70;;
15831;SDS011;8016;49.928;9.372;2022-07-12T11:35:57;1.37;;;0.70;;
15831;SDS011;8016;49.928;9.372;2022-07-12T11:38:27;0.67;;;0.67;;
15831;SDS011;8016;49.928;9.372;2022-07-12T11:40:57;0.60;;;0.40;;
15831;SDS011;8016;49.928;9.372;2022-07-12T11:43:23;0.60;;;0.53;;
15831;SDS011;8016;49.928;9.372;2022-07-12T11:45:50;0.90;;;0.70;;
15831;SDS011;8016;49.928;9.372;2022-07-12T11:48:16;1.63;;;0.63;;
15831;SDS011;8016;49.928;9.372;2022-07-12T11:50:42;0.50;;;0.50;;
15831;SDS011;8016;49.928;9.372;2022-07-12T11:53:21;0.60;;;0.60;;
15831;SDS011;8016;49.928;9.372;2022-07-12T11:55:48;0.70;;;0.70;;
15831;SDS011;8016;49.928;9.372;2022-07-12T11:58:15;0.83;;;0.70;;
15831;SDS011;8016;49.928;9.372;2022-07-12T12:00:41;2.77;;;0.80;;
15831;SDS011;8016;49.928;9.372;2022-07-12T12:03:08;0.90;;;0.60;;
15831;SDS011;8016;49.928;9.372;2022-07-12T12:05:34;0.60;;;0.60;;
15831;SDS011;8016;49.928;9.372;2022-07-12T12:08:01;0.50;;;0.50;;
15831;SDS011;8016;49.928;9.372;2022-07-12T12:10:27;0.50;;;0.50;;
15831;SDS011;8016;49.928;9.372;2022-07-12T12:12:57;1.63;;;0.50;;
15831;SDS011;8016;49.928;9.372;2022-07-12T12:15:27;0.87;;;0.70;;
15831;SDS011;8016;49.928;9.372;2022-07-12T12:17:58;0.50;;;0.45;;
15831;SDS011;8016;49.928;9.372;2022-07-12T12:20:31;0.52;;;0.52;;
15831;SDS011;8016;49.928;9.372;2022-07-12T12:22:58;1.47;;;0.50;;
15831;SDS011;8016;49.928;9.372;2022-07-12T12:25:25;0.45;;;0.45;;
15831;SDS011;8016;49.928;9.372;2022-07-12T12:28:03;0.70;;;0.70;;
15831;SDS011;8016;49.928;9.372;2022-07-12T12:30:30;0.75;;;0.75;;
15831;SDS011;8016;49.928;9.372;2022-07-12T12:32:57;0.85;;;0.60;;
15831;SDS011;8016;49.928;9.372;2022-07-12T12:35:37;0.80;;;0.40;;
15831;SDS011;8016;49.928;9.372;2022-07-12T12:38:21;1.83;;;0.52;;
15831;SDS011;8016;49.928;9.372;2022-07-12T12:40:50;1.00;;;0.60;;
15831;SDS011;8016;49.928;9.372;2022-07-12T12:43:20;0.60;;;0.50;;
15831;SDS011;8016;49.928;9.372;2022-07-12T12:48:22;0.80;;;0.43;;
15831;SDS011;8016;49.928;9.372;2022-07-12T12:50:49;0.95;;;0.68;;
15831;SDS011;8016;49.928;9.372;2022-07-12T12:55:45;0.75;;;0.60;;
15831;SDS011;8016;49.928;9.372;2022-07-12T12:58:11;0.50;;;0.50;;
15831;SDS011;8016;49.928;9.372;2022-07-12T13:00:40;1.40;;;0.52;;
15831;SDS011;8016;49.928;9.372;2022-07-12T13:03:07;0.77;;;0.63;;
15831;SDS011;8016;49.928;9.372;2022-07-12T13:05:33;0.60;;;0.60;;
15831;SDS011;8016;49.928;9.372;2022-07-12T13:08:00;0.93;;;0.50;;
15831;SDS011;8016;49.928;9.372;2022-07-12T13:10:26;0.47;;;0.47;;
15831;SDS011;8016;49.928;9.372;2022-07-12T13:12:52;0.50;;;0.50;;
15831;SDS011;8016;49.928;9.372;2022-07-12T13:15:18;2.67;;;0.55;;
15831;SDS011;8016;49.928;9.372;2022-07-12T13:17:44;1.77;;;1.08;;
15831;SDS011;8016;49.928;9.372;2022-07-12T13:20:10;0.65;;;0.57;;
15831;SDS011;8016;49.928;9.372;2022-07-12T13:22:38;0.70;;;0.70;;
15831;SDS011;8016;49.928;9.372;2022-07-12T13:25:04;0.98;;;0.70;;
15831;SDS011;8016;49.928;9.372;2022-07-12T13:27:30;2.45;;;0.70;;
15831;SDS011;8016;49.928;9.372;2022-07-12T13:29:56;0.50;;;0.50;;
15831;SDS011;8016;49.928;9.372;2022-07-12T13:32:22;0.70;;;0.57;;
15831;SDS011;8016;49.928;9.372;2022-07-12T13:34:49;1.35;;;0.70;;
15831;SDS011;8016;49.928;9.372;2022-07-12T13:37:15;0.52;;;0.50;;
15831;SDS011;8016;49.928;9.372;2022-07-12T13:39:41;0.80;;;0.70;;
15831;SDS011;8016;49.928;9.372;2022-07-12T13:42:26;0.80;;;0.60;;
15831;SDS011;8016;49.928;9.372;2022-07-12T13:44:52;0.82;;;0.60;;
15831;SDS011;8016;49.928;9.372;2022-07-12T13:47:21;2.10;;;0.60;;
15831;SDS011;8016;49.928;9.372;2022-07-12T13:49:49;1.05;;;0.68;;
15831;SDS011;8016;49.928;9.372;2022-07-12T13:52:15;1.13;;;0.70;;
15831;SDS011;8016;49.928;9.372;2022-07-12T13:54:42;0.93;;;0.70;;
15831;SDS011;8016;49.928;9.372;2022-07-12T13:57:08;1.75;;;0.70;;
15831;SDS011;8016;49.928;9.372;2022-07-12T13:59:35;0.60;;;0.60;;
15831;SDS011;8016;49.928;9.372;2022-07-12T14:02:01;0.50;;;0.50;;
15831;SDS011;8016;49.928;9.372;2022-07-12T14:04:27;2.55;;;0.60;;
15831;SDS011;8016;49.928;9.372;2022-07-12T14:06:53;1.65;;;0.65;;
15831;SDS011;8016;49.928;9.372;2022-07-12T14:09:19;0.70;;;0.70;;
15831;SDS011;8016;49.928;9.372;2022-07-12T14:11:45;1.40;;;0.63;;
15831;SDS011;8016;49.928;9.372;2022-07-12T14:14:11;0.73;;;0.73;;
15831;SDS011;8016;49.928;9.372;2022-07-12T14:16:37;0.50;;;0.50;;
15831;SDS011;8016;49.928;9.372;2022-07-12T14:19:03;0.68;;;0.57;;
15831;SDS011;8016;49.928;9.372;2022-07-12T14:21:29;1.42;;;0.88;;
15831;SDS011;8016;49.928;9.372;2022-07-12T14:23:58;1.00;;;0.80;;
15831;SDS011;8016;49.928;9.372;2022-07-12T14:26:25;0.73;;;0.60;;
15831;SDS011;8016;49.928;9.372;2022-07-12T14:28:51;1.33;;;0.70;;
15831;SDS011;8016;49.928;9.372;2022-07-12T14:31:17;0.73;;;0.60;;
15831;SDS011;8016;49.928;9.372;2022-07-12T14:33:43;0.68;;;0.68;;
15831;SDS011;8016;49.928;9.372;2022-07-12T14:36:09;0.60;;;0.57;;
15831;SDS011;8016;49.928;9.372;2022-07-12T14:38:36;2.05;;;0.60;;
15831;SDS011;8016;49.928;9.372;2022-07-12T14:41:02;0.60;;;0.60;;
15831;SDS011;8016;49.928;9.372;2022-07-12T14:43:28;0.68;;;0.60;;
15831;SDS011;8016;49.928;9.372;2022-07-12T14:45:54;0.50;;;0.50;;
15831;SDS011;8016;49.928;9.372;2022-07-12T14:48:20;3.33;;;1.13;;
15831;SDS011;8016;49.928;9.372;2022-07-12T14:50:47;2.20;;;0.50;;
15831;SDS011;8016;49.928;9.372;2022-07-12T14:53:13;1.58;;;0.80;;
15831;SDS011;8016;49.928;9.372;2022-07-12T14:55:39;1.67;;;0.60;;
15831;SDS011;8016;49.928;9.372;2022-07-12T14:58:05;1.60;;;0.52;;
15831;SDS011;8016;49.928;9.372;2022-07-12T15:00:33;0.50;;;0.50;;
15831;SDS011;8016;49.928;9.372;2022-07-12T15:02:59;1.40;;;0.77;;
15831;SDS011;8016;49.928;9.372;2022-07-12T15:05:26;3.42;;;0.70;;
15831;SDS011;8016;49.928;9.372;2022-07-12T15:07:52;0.57;;;0.57;;
15831;SDS011;8016;49.928;9.372;2022-07-12T15:10:18;0.35;;;0.35;;
15831;SDS011;8016;49.928;9.372;2022-07-12T15:12:44;0.70;;;0.70;;
15831;SDS011;8016;49.928;9.372;2022-07-12T15:15:10;0.50;;;0.50;;
15831;SDS011;8016;49.928;9.372;2022-07-12T15:17:36;0.73;;;0.60;;
15831;SDS011;8016;49.928;9.372;2022-07-12T15:20:03;0.70;;;0.57;;
15831;SDS011;8016;49.928;9.372;2022-07-12T15:22:30;1.83;;;0.70;;
15831;SDS011;8016;49.928;9.372;2022-07-12T15:24:56;0.98;;;0.45;;
15831;SDS011;8016;49.928;9.372;2022-07-12T15:27:22;2.45;;;0.82;;